| time (UTC) | temp F | wind direction | speed MPH | gust MPH | rain 1hr in | rain 24hr in | rain mn in | humidity % | barometer mb |
| 20260510170604 | 61 | 0 | 12.0 | 16.0 | 0.41 | 0.81 | 0.81 | 97 | 1020.0 |
| 20260510165648 | 61 | 270 | 11.0 | 16.0 | 0.32 | 0.72 | 0.72 | 94 | 1019.5 |
| 20260510164604 | 63 | 0 | 16.0 | 21.0 | 0.07 | 0.47 | 0.47 | 86 | 1019.4 |
| 20260510163628 | 66 | 315 | 12.0 | 26.0 | 0.01 | 0.41 | 0.41 | 74 | 1019.4 |
| 20260510162604 | 73 | 0 | 10.0 | 13.0 | 0.00 | 0.40 | 0.40 | 64 | 1018.6 |
| 20260510161628 | 75 | 45 | 2.0 | 4.0 | 0.00 | 0.40 | 0.40 | 64 | 1017.0 |
| 20260510160624 | 79 | 90 | 1.0 | 2.0 | 0.00 | 0.40 | 0.40 | 63 | 1016.6 |
| 20260510155628 | 78 | 315 | 2.0 | 3.0 | 0.00 | 0.40 | 0.40 | 67 | 1016.1 |
| 20260510154604 | 78 | 135 | 3.0 | 5.0 | 0.00 | 0.40 | 0.40 | 65 | 1016.4 |
| 20260510153628 | 76 | 180 | 1.0 | 3.0 | 0.00 | 0.40 | 0.40 | 69 | 1016.1 |
| 20260510152624 | 75 | 180 | 1.0 | 2.0 | 0.00 | 0.40 | 0.40 | 70 | 1015.8 |
| 20260510151749 | 74 | 270 | 4.0 | 7.0 | 0.00 | 0.40 | 0.40 | 72 | 1015.5 |
| 20260510150604 | 73 | 45 | 2.0 | 3.0 | 0.00 | 0.40 | 0.40 | 74 | 1015.6 |
| 20260510145628 | 72 | 180 | 4.0 | 6.0 | 0.00 | 0.40 | 0.40 | 80 | 1015.7 |
| 20260510144604 | 71 | 180 | 5.0 | 7.0 | 0.00 | 0.40 | 0.40 | 80 | 1015.7 |
| 20260510143628 | 71 | 90 | 1.0 | 3.0 | 0.00 | 0.40 | 0.40 | 85 | 1015.5 |
| 20260510142604 | 70 | 45 | 1.0 | 1.0 | 0.00 | 0.40 | 0.40 | 91 | 1015.7 |
| 20260510141628 | 69 | 45 | 1.0 | 2.0 | 0.00 | 0.40 | 0.40 | 97 | 1015.9 |
| 20260510140604 | 68 | 225 | 1.0 | 3.0 | 0.00 | 0.40 | 0.40 | 99 | 1016.1 |
| 20260510135628 | 67 | 180 | 1.0 | 2.0 | 0.00 | 0.40 | 0.40 | 99 | 1016.4 |
| 20260510134604 | 66 | 135 | 1.0 | 3.0 | 0.00 | 0.40 | 0.40 | 99 | 1017.1 |
| 20260510133628 | 66 | 225 | 1.0 | 2.0 | 0.00 | 0.40 | 0.40 | 99 | 1016.9 |
| 20260510132604 | 66 | 0.0 | 1.0 | 0.00 | 0.40 | 0.40 | 99 | 1017.0 | |
| 20260510131628 | 65 | 0.0 | 1.0 | 0.00 | 0.40 | 0.40 | 99 | 1016.8 | |
| 20260510130624 | 65 | 0.0 | 1.0 | 0.00 | 0.40 | 0.40 | 99 | 1016.7 | |
| 20260510125628 | 64 | 135 | 1.0 | 2.0 | 0.00 | 0.40 | 0.40 | 99 | 1016.6 |
| 20260510124604 | 64 | 0.0 | 0.0 | 0.00 | 0.40 | 0.40 | 99 | 1016.7 | |
| 20260510123628 | 63 | 0.0 | 1.0 | 0.00 | 0.40 | 0.40 | 99 | 1016.6 | |
| 20260510122604 | 63 | 90 | 1.0 | 1.0 | 0.00 | 0.40 | 0.40 | 99 | 1016.3 |
| 20260510121648 | 63 | 135 | 2.0 | 3.0 | 0.00 | 0.40 | 0.40 | 99 | 1016.4 |
| 20260510120604 | 63 | 90 | 1.0 | 1.0 | 0.00 | 0.40 | 0.40 | 99 | 1016.1 |
| 20260510115628 | 63 | 0.0 | 0.0 | 0.00 | 0.40 | 0.40 | 99 | 1016.0 | |
| 20260510114604 | 63 | 0.0 | 0.0 | 0.00 | 0.40 | 0.40 | 99 | 1016.2 | |
| 20260510113628 | 63 | 90 | 1.0 | 2.0 | 0.00 | 0.40 | 0.40 | 99 | 1015.9 |
| 20260510112604 | 63 | 90 | 1.0 | 2.0 | 0.00 | 0.40 | 0.40 | 98 | 1016.0 |
| 20260510111628 | 63 | 45 | 2.0 | 3.0 | 0.00 | 0.40 | 0.40 | 98 | 1016.0 |
| 20260510110604 | 63 | 0.0 | 1.0 | 0.00 | 0.40 | 0.40 | 98 | 1015.8 | |
| 20260510105628 | 63 | 135 | 1.0 | 1.0 | 0.00 | 0.40 | 0.40 | 98 | 1015.7 |
| 20260510104604 | 63 | 90 | 3.0 | 3.0 | 0.06 | 0.40 | 0.40 | 98 | 1015.8 |
| 20260510103628 | 63 | 0 | 3.0 | 3.0 | 0.09 | 0.40 | 0.40 | 98 | 1015.7 |
| 20260510102604 | 63 | 90 | 2.0 | 4.0 | 0.25 | 0.40 | 0.40 | 97 | 1015.0 |
| 20260510101628 | 63 | 135 | 3.0 | 4.0 | 0.34 | 0.40 | 0.40 | 97 | 1015.3 |
| 20260510100604 | 63 | 180 | 3.0 | 4.0 | 0.34 | 0.40 | 0.40 | 96 | 1015.5 |
| 20260510095628 | 63 | 135 | 5.0 | 8.0 | 0.34 | 0.40 | 0.40 | 96 | 1015.6 |
| 20260510094604 | 63 | 90 | 5.0 | 6.0 | 0.30 | 0.34 | 0.34 | 94 | 1015.6 |
| 20260510093628 | 63 | 90 | 7.0 | 9.0 | 0.26 | 0.31 | 0.31 | 91 | 1015.5 |
| 20260510092604 | 64 | 90 | 5.0 | 7.0 | 0.11 | 0.15 | 0.15 | 85 | 1016.3 |
| 20260510091628 | 66 | 315 | 5.0 | 7.0 | 0.01 | 0.06 | 0.06 | 82 | 1016.5 |
| 20260510090604 | 67 | 45 | 11.0 | 15.0 | 0.01 | 0.06 | 0.06 | 78 | 1016.0 |
| 20260510085628 | 69 | 45 | 19.0 | 26.0 | 0.01 | 0.06 | 0.06 | 78 | 1016.0 |
| 20260510084604 | 70 | 338 | 6.0 | 8.0 | 0.00 | 0.05 | 0.05 | 87 | 1015.6 |
| 20260510083628 | 71 | 0 | 7.0 | 9.0 | 0.00 | 0.05 | 0.05 | 94 | 1015.0 |
| 20260510082604 | 71 | 0 | 3.0 | 4.0 | 0.00 | 0.05 | 0.05 | 99 | 1014.4 |
| 20260510081628 | 72 | 23 | 3.0 | 5.0 | 0.00 | 0.05 | 0.05 | 99 | 1014.3 |
| 20260510080604 | 71 | 338 | 3.0 | 5.0 | 0.00 | 0.05 | 0.05 | 99 | 1014.5 |
| 20260510075628 | 71 | 45 | 3.0 | 4.0 | 0.05 | 0.05 | 0.05 | 99 | 1014.0 |
| 20260510074604 | 71 | 45 | 2.0 | 3.0 | 0.05 | 0.05 | 0.05 | 97 | 1013.4 |
| 20260510073628 | 72 | 90 | 1.0 | 3.0 | 0.05 | 0.05 | 0.05 | 96 | 1012.8 |
| 20260510072624 | 72 | 45 | 3.0 | 4.0 | 0.05 | 0.05 | 0.05 | 95 | 1012.8 |
| 20260510071628 | 72 | 90 | 4.0 | 5.0 | 0.05 | 0.05 | 0.05 | 93 | 1012.4 |
| 20260510070624 | 73 | 23 | 4.0 | 7.0 | 0.05 | 0.05 | 0.05 | 87 | 1012.5 |
| 20260510065628 | 74 | 135 | 3.0 | 4.0 | 0.00 | 0.00 | 0.00 | 85 | 1013.3 |
| 20260510064604 | 74 | 0 | 2.0 | 4.0 | 0.00 | 0.00 | 0.00 | 86 | 1014.8 |
| 20260510063628 | 74 | 0 | 5.0 | 7.0 | 0.00 | 0.00 | 0.00 | 86 | 1014.6 |
| 20260510062604 | 74 | 338 | 3.0 | 4.0 | 0.00 | 0.00 | 0.00 | 86 | 1014.8 |
| 20260510061628 | 74 | 0 | 5.0 | 7.0 | 0.00 | 0.00 | 0.00 | 85 | 1014.4 |
| 20260510060604 | 74 | 0 | 3.0 | 5.0 | 0.00 | 0.00 | 0.00 | 86 | 1014.4 |
| 20260510055202 | 73 | 90 | 2.0 | 3.0 | 0.00 | 0.00 | 0.00 | 85 | 1012.7 |
| 20260510054118 | 73 | 90 | 3.0 | 4.0 | 0.00 | 0.00 | 0.00 | 84 | 1012.1 |
| 20260510053142 | 74 | 45 | 1.0 | 3.0 | 0.00 | 0.00 | 0.00 | 84 | 1012.3 |
| 20260510052158 | 73 | 90 | 1.0 | 2.0 | 0.00 | 0.00 | 0.00 | 83 | 1011.7 |
| 20260510051142 | 73 | 0.0 | 1.0 | 0.00 | 0.00 | 0.00 | 84 | 1011.9 | |
| 20260510050118 | 73 | 90 | 3.0 | 5.0 | 0.00 | 0.00 | 0.00 | 83 | 1011.8 |
| 20260510045142 | 72 | 90 | 3.0 | 6.0 | 0.00 | 0.00 | 0.00 | 85 | 1011.6 |
| 20260510044118 | 72 | 135 | 4.0 | 5.0 | 0.00 | 0.00 | 0.00 | 85 | 1011.3 |
| 20260510043142 | 71 | 135 | 1.0 | 2.0 | 0.00 | 0.00 | 0.00 | 83 | 1011.3 |
| 20260510042138 | 71 | 135 | 4.0 | 5.0 | 0.00 | 0.00 | 0.00 | 83 | 1011.3 |
| 20260510041202 | 71 | 0.0 | 0.0 | 0.00 | 0.00 | 0.00 | 83 | 1011.3 | |
| 20260510040118 | 71 | 90 | 1.0 | 1.0 | 0.00 | 0.01 | 0.00 | 82 | 1011.5 |
| 20260510035142 | 71 | 90 | 1.0 | 3.0 | 0.00 | 0.02 | 0.00 | 81 | 1011.5 |
| 20260510034118 | 71 | 90 | 1.0 | 1.0 | 0.00 | 0.02 | 0.00 | 80 | 1011.6 |
| 20260510033142 | 72 | 0.0 | 1.0 | 0.00 | 0.02 | 0.00 | 79 | 1011.5 | |
| 20260510032118 | 72 | 90 | 2.0 | 3.0 | 0.00 | 0.02 | 0.00 | 78 | 1011.6 |
| 20260510031142 | 72 | 90 | 1.0 | 2.0 | 0.00 | 0.02 | 0.00 | 77 | 1011.5 |
| 20260510030138 | 72 | 135 | 2.0 | 3.0 | 0.00 | 0.02 | 0.00 | 76 | 1011.5 |
| 20260510025142 | 73 | 0.0 | 1.0 | 0.00 | 0.02 | 0.00 | 72 | 1011.6 | |
| 20260510024118 | 73 | 0.0 | 1.0 | 0.00 | 0.02 | 0.00 | 72 | 1011.6 | |
| 20260510023142 | 73 | 135 | 1.0 | 2.0 | 0.00 | 0.02 | 0.00 | 71 | 1011.6 |
| 20260510022118 | 73 | 90 | 1.0 | 3.0 | 0.00 | 0.02 | 0.00 | 71 | 1011.5 |
| 20260510021142 | 74 | 90 | 1.0 | 2.0 | 0.00 | 0.02 | 0.00 | 71 | 1011.4 |
| 20260510020118 | 74 | 0.0 | 0.0 | 0.00 | 0.02 | 0.00 | 71 | 1011.3 | |
| 20260510015142 | 74 | 45 | 1.0 | 1.0 | 0.00 | 0.02 | 0.00 | 70 | 1011.1 |
| 20260510014138 | 75 | 0.0 | 0.0 | 0.00 | 0.02 | 0.00 | 68 | 1011.1 | |
| 20260510013142 | 76 | 0.0 | 0.0 | 0.00 | 0.02 | 0.00 | 67 | 1011.1 | |
| 20260510012118 | 76 | 0.0 | 0.0 | 0.00 | 0.02 | 0.00 | 66 | 1010.9 | |
| 20260510011142 | 77 | 0.0 | 0.0 | 0.00 | 0.02 | 0.00 | 64 | 1010.6 | |
| 20260510010118 | 78 | 0.0 | 0.0 | 0.00 | 0.02 | 0.00 | 63 | 1010.8 | |
| 20260510005142 | 79 | 0.0 | 1.0 | 0.00 | 0.02 | 0.00 | 62 | 1010.6 | |
| 20260510004158 | 80 | 0.0 | 1.0 | 0.00 | 0.02 | 0.00 | 61 | 1010.6 | |
| 20260510003142 | 81 | 0.0 | 1.0 | 0.00 | 0.02 | 0.00 | 60 | 1010.4 | |
| 20260510002118 | 82 | 135 | 1.0 | 1.0 | 0.00 | 0.02 | 0.00 | 54 | 1010.5 |
| 20260510001202 | 83 | 135 | 1.0 | 3.0 | 0.00 | 0.02 | 0.00 | 52 | 1010.6 |
| 20260510000118 | 84 | 135 | 1.0 | 2.0 | 0.00 | 0.02 | 0.00 | 50 | 1010.6 |
| 20260509235142 | 85 | 68 | 3.0 | 3.0 | 0.00 | 0.02 | 0.00 | 48 | 1010.8 |
| 20260509234118 | 86 | 45 | 3.0 | 3.0 | 0.00 | 0.02 | 0.00 | 46 | 1010.8 |
| 20260509233202 | 86 | 135 | 1.0 | 2.0 | 0.00 | 0.02 | 0.00 | 47 | 1010.6 |
| 20260509232118 | 86 | 45 | 1.0 | 2.0 | 0.00 | 0.02 | 0.00 | 42 | 1010.7 |
| 20260509231142 | 87 | 90 | 1.0 | 2.0 | 0.00 | 0.02 | 0.00 | 46 | 1010.7 |
| 20260509230118 | 86 | 90 | 2.0 | 3.0 | 0.00 | 0.02 | 0.00 | 44 | 1010.8 |
| 20260509225142 | 86 | 45 | 2.0 | 3.0 | 0.00 | 0.02 | 0.00 | 41 | 1010.8 |
| 20260509224118 | 86 | 23 | 4.0 | 5.0 | 0.00 | 0.02 | 0.00 | 44 | 1010.7 |
| 20260509223202 | 86 | 338 | 3.0 | 4.0 | 0.00 | 0.02 | 0.00 | 45 | 1010.7 |
| 20260509222118 | 86 | 0 | 3.0 | 3.0 | 0.00 | 0.02 | 0.00 | 46 | 1010.4 |
| 20260509221142 | 87 | 45 | 3.0 | 4.0 | 0.00 | 0.02 | 0.00 | 47 | 1010.6 |
| 20260509220118 | 87 | 135 | 3.0 | 4.0 | 0.00 | 0.02 | 0.00 | 50 | 1010.5 |
| 20260509215142 | 86 | 135 | 5.0 | 7.0 | 0.00 | 0.02 | 0.00 | 52 | 1010.6 |
| 20260509214118 | 85 | 45 | 4.0 | 5.0 | 0.00 | 0.02 | 0.00 | 52 | 1010.8 |
| 20260509213142 | 85 | 45 | 4.0 | 5.0 | 0.00 | 0.02 | 0.00 | 51 | 1011.2 |
| 20260509212118 | 86 | 90 | 5.0 | 5.0 | 0.00 | 0.02 | 0.00 | 52 | 1011.1 |
| 20260509211142 | 86 | 90 | 4.0 | 5.0 | 0.00 | 0.02 | 0.00 | 54 | 1011.2 |
| 20260509210118 | 85 | 90 | 3.0 | 5.0 | 0.00 | 0.02 | 0.00 | 56 | 1011.2 |
| 20260509205142 | 85 | 0 | 3.0 | 5.0 | 0.00 | 0.02 | 0.00 | 54 | 1011.4 |
| 20260509204118 | 85 | 135 | 1.0 | 2.0 | 0.00 | 0.02 | 0.00 | 54 | 1011.6 |
| 20260509203202 | 85 | 45 | 4.0 | 5.0 | 0.00 | 0.02 | 0.00 | 53 | 1011.5 |
| 20260509202118 | 85 | 45 | 4.0 | 5.0 | 0.00 | 0.02 | 0.00 | 52 | 1011.7 |
| 20260509201142 | 85 | 45 | 3.0 | 4.0 | 0.00 | 0.02 | 0.00 | 54 | 1011.5 |
| 20260509200118 | 85 | 45 | 3.0 | 5.0 | 0.00 | 0.02 | 0.00 | 56 | 1011.6 |
| 20260509195142 | 85 | 68 | 2.0 | 3.0 | 0.00 | 0.02 | 0.00 | 58 | 1011.7 |
| 20260509194118 | 83 | 0 | 1.0 | 2.0 | 0.00 | 0.02 | 0.00 | 57 | 1011.8 |
| 20260509193142 | 85 | 45 | 2.0 | 3.0 | 0.00 | 0.02 | 0.00 | 53 | 1012.1 |
| 20260509192118 | 84 | 0 | 5.0 | 7.0 | 0.00 | 0.02 | 0.00 | 54 | 1012.0 |
| 20260509191142 | 85 | 0 | 3.0 | 5.0 | 0.00 | 0.02 | 0.00 | 58 | 1012.1 |
| 20260509190118 | 84 | 45 | 3.0 | 5.0 | 0.00 | 0.02 | 0.00 | 57 | 1012.1 |
| 20260509185203 | 84 | 90 | 3.0 | 3.0 | 0.00 | 0.02 | 0.00 | 58 | 1012.3 |
| 20260509184118 | 83 | 45 | 5.0 | 7.0 | 0.00 | 0.02 | 0.00 | 59 | 1012.3 |
| 20260509183142 | 82 | 45 | 3.0 | 5.0 | 0.00 | 0.02 | 0.00 | 61 | 1012.4 |
| 20260509182118 | 81 | 0 | 2.0 | 3.0 | 0.00 | 0.02 | 0.00 | 63 | 1012.3 |
| 20260509181142 | 81 | 45 | 3.0 | 5.0 | 0.00 | 0.02 | 0.00 | 64 | 1012.6 |
| 20260509180118 | 81 | 0.0 | 1.0 | 0.00 | 0.02 | 0.00 | 65 | 1012.6 | |
| 20260509175142 | 82 | 45 | 1.0 | 2.0 | 0.00 | 0.02 | 0.00 | 60 | 1012.6 |
| 20260509174118 | 81 | 45 | 3.0 | 5.0 | 0.00 | 0.02 | 0.00 | 66 | 1012.7 |
| 20260509173142 | 80 | 23 | 1.0 | 1.0 | 0.00 | 0.02 | 0.00 | 69 | 1013.1 |
| 20260509172118 | 79 | 45 | 4.0 | 6.0 | 0.00 | 0.02 | 0.00 | 70 | 1013.1 |
| 20260509171142 | 79 | 0 | 5.0 | 6.0 | 0.00 | 0.02 | 0.00 | 68 | 1013.1 |